createdAt,value
2019-05-01T00:03:39.109Z,13.95
2019-05-01T00:08:43.034Z,12.45
2019-05-01T00:13:46.863Z,11.63
2019-05-01T00:18:50.745Z,11.45
2019-05-01T00:23:54.629Z,10.32
2019-05-01T00:28:58.513Z,10.23
2019-05-01T00:34:02.386Z,14.75
2019-05-01T00:39:07.653Z,8.70
2019-05-01T00:44:11.519Z,8.43
2019-05-01T00:49:15.407Z,12.18
2019-05-01T00:54:19.278Z,11.45
2019-05-01T00:59:27.190Z,12.98
2019-05-01T01:04:31.165Z,11.22
2019-05-01T01:09:35.039Z,13.18
2019-05-01T01:14:38.913Z,9.70
2019-05-01T01:19:42.797Z,10.40
2019-05-01T01:24:46.663Z,13.30
2019-05-01T01:29:51.540Z,19.52
2019-05-01T01:34:55.460Z,18.05
2019-05-01T01:39:59.381Z,16.32
2019-05-01T01:45:08.794Z,11.20
2019-05-01T01:50:12.669Z,16.65
2019-05-01T01:55:16.549Z,15.03
2019-05-01T02:00:21.995Z,13.08
2019-05-01T02:05:27.432Z,11.28
2019-05-01T02:10:42.364Z,10.93
2019-05-01T02:15:36.916Z,12.70
2019-05-01T02:20:40.796Z,14.95
2019-05-01T02:25:45.164Z,12.43
2019-05-01T02:31:07.873Z,13.93
2019-05-01T02:36:14.170Z,9.23
2019-05-01T02:41:19.358Z,13.58
2019-05-01T02:46:25.173Z,17.70
2019-05-01T02:51:29.569Z,12.47
2019-05-01T02:56:42.152Z,11.35
2019-05-01T03:01:48.123Z,9.75
2019-05-01T03:06:52.624Z,11.18
2019-05-01T03:11:58.941Z,13.88
2019-05-01T03:17:05.481Z,10.75
2019-05-01T03:22:11.948Z,11.85
2019-05-01T03:27:16.544Z,12.55
2019-05-01T03:32:20.523Z,12.68
2019-05-01T03:37:24.704Z,9.33
2019-05-01T03:42:29.703Z,13.10
2019-05-01T03:47:33.858Z,14.15
2019-05-01T03:52:37.783Z,10.82
2019-05-01T03:57:42.613Z,15.18
2019-05-01T04:02:50.922Z,14.55
2019-05-01T04:07:54.829Z,13.75
2019-05-01T04:12:58.739Z,13.05
2019-05-01T04:18:04.590Z,11.03
2019-05-01T04:23:08.779Z,10.53
2019-05-01T04:28:30.610Z,13.40
2019-05-01T04:33:35.890Z,13.00
2019-05-01T04:38:39.769Z,16.50
2019-05-01T04:43:43.644Z,12.13
2019-05-01T04:48:47.538Z,18.27
2019-05-01T04:53:51.812Z,15.05
2019-05-01T04:58:56.392Z,13.28
2019-05-01T05:04:00.264Z,19.92
2019-05-01T05:09:05.442Z,11.03
2019-05-01T05:14:13.882Z,12.28
2019-05-01T05:19:17.761Z,16.55
2019-05-01T05:24:22.233Z,10.88
2019-05-01T05:29:26.776Z,14.23
2019-05-01T05:34:32.647Z,14.68
2019-05-01T05:39:41.548Z,13.15
2019-05-01T05:44:47.131Z,14.97
2019-05-01T05:49:51.473Z,15.45
2019-05-01T05:55:07.982Z,13.00
2019-05-01T06:00:22.947Z,14.28
2019-05-01T06:05:31.319Z,10.72
2019-05-01T06:10:37.515Z,13.62
2019-05-01T06:15:43.010Z,11.15
2019-05-01T06:20:49.020Z,13.80
2019-05-01T06:26:00.383Z,14.55
2019-05-01T06:31:23.197Z,14.80
2019-05-01T06:41:33.637Z,14.38
2019-05-01T06:46:43.045Z,13.18
2019-05-01T06:51:53.343Z,9.38
2019-05-01T06:56:59.580Z,12.63
2019-05-01T07:02:03.749Z,10.93
2019-05-01T07:07:24.798Z,10.13
2019-05-01T07:12:23.990Z,9.95
2019-05-01T07:17:26.847Z,9.68
2019-05-01T07:22:37.010Z,12.82
2019-05-01T07:27:39.094Z,11.05
2019-05-01T07:32:43.116Z,7.28
2019-05-01T07:37:49.292Z,6.67
2019-05-01T07:43:14.243Z,9.78
2019-05-01T07:48:23.824Z,6.60
2019-05-01T07:58:32.863Z,7.67
2019-05-01T08:03:38.067Z,6.08
2019-05-01T08:08:42.733Z,5.58
2019-05-01T08:13:46.629Z,7.08
2019-05-01T08:18:58.859Z,5.60
2019-05-01T08:23:59.495Z,6.55
2019-05-01T08:29:21.161Z,5.03
2019-05-01T08:34:29.847Z,7.62
2019-05-01T08:39:33.815Z,3.50
2019-05-01T08:44:45.309Z,5.58
2019-05-01T08:49:50.953Z,2.98
2019-05-01T08:54:55.202Z,5.35
2019-05-01T09:00:00.263Z,4.12
2019-05-01T09:05:07.232Z,4.90
2019-05-01T09:10:17.129Z,7.00
2019-05-01T09:15:19.346Z,4.55
2019-05-01T09:20:23.385Z,13.85
2019-05-01T09:25:35.383Z,15.63
2019-05-01T09:30:47.571Z,8.23
2019-05-01T09:35:51.524Z,7.35
2019-05-01T09:40:55.486Z,6.80
2019-05-01T09:45:59.538Z,8.78
2019-05-01T09:51:21.376Z,10.03
2019-05-01T09:56:28.234Z,9.53
2019-05-01T10:01:33.040Z,9.08
2019-05-01T10:06:37.255Z,9.75
2019-05-01T10:11:42.021Z,12.07
2019-05-01T10:16:49.455Z,9.33
2019-05-01T10:21:53.352Z,11.38
2019-05-01T10:27:00.216Z,13.03
2019-05-01T10:32:12.005Z,12.88
2019-05-01T10:37:15.996Z,11.33
2019-05-01T10:42:20.140Z,11.73
2019-05-01T10:47:24.065Z,12.58
2019-05-01T10:52:28.016Z,24.07
2019-05-01T10:57:35.061Z,14.33
2019-05-01T11:02:38.195Z,14.07
2019-05-01T11:07:42.382Z,16.32
2019-05-01T11:12:46.418Z,18.12
2019-05-01T11:17:50.279Z,38.55
2019-05-01T11:22:54.184Z,14.85
2019-05-01T11:27:58.110Z,18.40
2019-05-01T11:33:03.622Z,18.20
2019-05-01T11:38:25.545Z,15.28
2019-05-01T11:43:30.388Z,20.05
2019-05-01T11:48:34.458Z,20.45
2019-05-01T11:53:38.355Z,20.35
2019-05-01T11:58:42.318Z,24.25
2019-05-01T12:03:46.425Z,16.10
2019-05-01T12:08:50.352Z,20.65
2019-05-01T12:13:54.274Z,18.92
2019-05-01T12:18:58.156Z,22.20
2019-05-01T12:24:02.044Z,16.65
2019-05-01T12:29:06.348Z,19.05
2019-05-01T12:34:10.645Z,31.68
2019-05-01T12:39:18.066Z,26.82
2019-05-01T12:44:21.957Z,33.08
2019-05-01T12:49:25.841Z,24.47
2019-05-01T12:54:37.313Z,33.42
2019-05-01T12:59:41.196Z,22.20
2019-05-01T13:04:45.098Z,24.60
2019-05-01T13:09:48.976Z,26.50
2019-05-01T13:14:52.853Z,29.82
2019-05-01T13:19:56.829Z,27.85
2019-05-01T13:25:00.798Z,27.98
2019-05-01T13:30:09.178Z,29.60
2019-05-01T13:35:13.199Z,27.60
2019-05-01T13:40:17.789Z,28.40
2019-05-01T13:45:21.677Z,25.37
2019-05-01T13:50:25.583Z,33.33
2019-05-01T13:55:29.697Z,31.42
2019-05-01T14:00:33.978Z,31.07
2019-05-01T14:05:37.889Z,32.93
2019-05-01T14:10:41.750Z,29.02
2019-05-01T14:15:45.640Z,30.20
2019-05-01T14:21:00.091Z,26.90
2019-05-01T14:26:05.575Z,27.67
2019-05-01T14:31:09.598Z,31.05
2019-05-01T14:36:13.527Z,29.60
2019-05-01T14:41:17.513Z,28.67
2019-05-01T14:46:21.615Z,30.68
2019-05-01T14:51:25.931Z,25.72
2019-05-01T14:56:29.857Z,27.60
2019-05-01T15:01:33.797Z,31.02
2019-05-01T15:06:37.858Z,27.95
2019-05-01T15:11:42.956Z,32.25
2019-05-01T15:16:48.458Z,32.17
2019-05-01T15:21:52.379Z,25.68
2019-05-01T15:26:56.358Z,27.25
2019-05-01T15:32:00.203Z,28.60
2019-05-01T15:37:04.182Z,35.80
2019-05-01T15:42:15.867Z,36.48
2019-05-01T15:47:19.872Z,38.95
2019-05-01T15:52:23.837Z,38.98
2019-05-01T15:57:27.808Z,30.50
2019-05-01T16:02:31.716Z,31.37
2019-05-01T16:07:36.112Z,36.25
2019-05-01T16:12:44.594Z,32.08
2019-05-01T16:17:48.501Z,28.37
2019-05-01T16:22:52.484Z,29.45
2019-05-01T16:27:56.396Z,27.70
2019-05-01T16:33:00.328Z,33.78
2019-05-01T16:38:05.904Z,35.00
2019-05-01T16:43:11.171Z,30.82
2019-05-01T16:48:15.088Z,29.37
2019-05-01T16:53:18.995Z,31.97
2019-05-01T16:58:22.919Z,28.25
2019-05-01T17:03:43.913Z,28.00
2019-05-01T17:08:55.330Z,26.37
2019-05-01T17:14:00.863Z,29.02
2019-05-01T17:19:04.863Z,41.40
2019-05-01T17:24:08.968Z,26.80
2019-05-01T17:29:12.923Z,28.62
2019-05-01T17:34:16.823Z,27.30
2019-05-01T17:39:22.013Z,32.63
2019-05-01T17:44:26.667Z,30.80
2019-05-01T17:49:30.730Z,27.30
2019-05-01T17:54:34.688Z,35.85
2019-05-01T17:59:38.632Z,29.80
2019-05-01T18:05:02.545Z,30.08
2019-05-01T18:10:08.139Z,32.35
2019-05-01T18:15:12.629Z,38.38
2019-05-01T18:20:16.669Z,35.25
2019-05-01T18:25:22.107Z,33.92
2019-05-01T18:30:27.583Z,33.88
2019-05-01T18:35:31.592Z,33.00
2019-05-01T18:40:42.992Z,37.08
2019-05-01T18:45:49.706Z,29.75
2019-05-01T18:50:55.050Z,36.53
2019-05-01T18:56:01.420Z,32.75
2019-05-01T19:01:09.279Z,35.52
2019-05-01T19:06:10.713Z,34.18
2019-05-01T19:11:15.475Z,34.18
2019-05-01T19:16:19.434Z,35.55
2019-05-01T19:21:24.146Z,34.60
2019-05-01T19:26:28.248Z,34.03
2019-05-01T19:31:32.329Z,35.03
2019-05-01T19:36:40.350Z,34.80
2019-05-01T19:41:43.792Z,30.27
2019-05-01T19:46:48.154Z,34.33
2019-05-01T19:51:55.435Z,28.90
2019-05-01T19:56:58.402Z,25.57
2019-05-01T20:02:02.364Z,25.77
2019-05-01T20:07:10.543Z,21.60
2019-05-01T20:12:12.225Z,21.25
2019-05-01T20:17:16.193Z,63.83
2019-05-01T20:22:20.114Z,35.50
2019-05-01T20:27:24.035Z,19.95
2019-05-01T20:32:28.114Z,17.95
2019-05-01T20:37:32.034Z,27.13
2019-05-01T20:42:36.002Z,18.90
2019-05-01T20:47:45.282Z,23.40
2019-05-01T20:52:45.506Z,20.23
2019-05-01T20:57:50.338Z,23.95
2019-05-01T21:02:54.425Z,27.07
2019-05-01T21:08:09.224Z,25.43
2019-05-01T21:13:13.169Z,22.50
2019-05-01T21:18:21.008Z,23.38
2019-05-01T21:23:23.303Z,32.93
2019-05-01T21:28:27.307Z,15.85
2019-05-01T21:33:31.190Z,17.67
2019-05-01T21:38:35.095Z,12.00
2019-05-01T21:43:38.964Z,15.83
2019-05-01T21:48:43.540Z,15.93
2019-05-01T21:53:47.550Z,18.95
2019-05-01T21:58:51.422Z,16.35
2019-05-01T22:03:57.035Z,16.27
2019-05-01T22:09:00.826Z,15.68
2019-05-01T22:14:07.654Z,15.38
2019-05-01T22:19:19.296Z,15.88
2019-05-01T22:24:27.722Z,18.82
2019-05-01T22:29:34.223Z,15.08
2019-05-01T22:34:42.464Z,16.90
2019-05-01T22:39:47.900Z,15.72
2019-05-01T22:44:51.767Z,18.23
2019-05-01T22:49:55.842Z,12.78
2019-05-01T22:54:59.766Z,18.55
2019-05-01T23:00:05.324Z,16.85
2019-05-01T23:05:09.933Z,23.60
2019-05-01T23:10:14.258Z,17.07
2019-05-01T23:15:26.014Z,15.25
2019-05-01T23:20:30.199Z,18.23
2019-05-01T23:25:36.631Z,16.93
2019-05-01T23:30:39.776Z,16.15
2019-05-01T23:35:43.768Z,12.68
2019-05-01T23:40:50.963Z,13.30
2019-05-01T23:45:53.324Z,12.78
2019-05-01T23:50:57.247Z,15.72
2019-05-01T23:56:02.092Z,13.22
